Latest Weather Observations for Mount Nowa Nowa

IDV60801

Issued at 8:02 pm EST Friday 29 May 2015 (issued every 30 minutes, with the page automatically refreshed every 10 minutes)

About weather observations | Map of weather stations | Latest weather observations for VIC | Other Formats
Station Details ID: 084144 Name: MOUNT NOWA NOWA Lat: -37.69 Lon: 148.09 Height: 350.0 m
Data from the previous 72 hours. | See also: Recent months at Mount Nowa Nowa
Date/Time
EST
Temp
°C
App
Temp
°C
Dew
Point
Rel
Hum
%
Delta-T
°C
Wind Press
QNH
hPa
Press
MSL
hPa
Rain
since 9 am
mm
Dir
 
Spd
km/h
Gust
km/h
Spd
kts
Gust
kts
29/08:00pm 9.8 7.2 4.0 67 2.6 NNW 7 11 4 6 - - 0.0
29/07:30pm 9.9 7.8 3.9 66 2.7 WNW 4 9 2 5 - - 0.0
29/07:00pm 10.2 8.1 3.7 64 2.9 W 4 6 2 3 - - 0.0
29/06:30pm 9.8 7.7 3.8 66 2.7 W 4 7 2 4 - - 0.0
29/06:00pm 10.0 8.0 4.2 67 2.6 WSW 4 7 2 4 - - 0.0
29/05:30pm 10.3 8.3 4.2 66 2.8 SSE 4 7 2 4 - - 0.0
29/05:00pm 9.9 8.3 4.7 70 2.4 SSE 2 7 1 4 - - 0.0
29/04:30pm 10.9 9.0 4.8 66 2.8 S 4 6 2 3 - - 0.0
29/04:00pm 11.6 9.6 4.6 62 3.2 SSW 4 7 2 4 - - 0.0
29/03:30pm 12.5 10.5 4.5 58 3.7 SSW 4 9 2 5 - - 0.0
29/03:00pm 13.4 11.4 4.3 54 4.2 SW 4 11 2 6 - - 0.0
29/02:30pm 13.7 11.1 4.3 53 4.4 WSW 7 13 4 7 - - 0.0
29/02:00pm 13.9 11.7 5.3 56 4.1 WSW 6 17 3 9 - - 0.0
29/01:30pm 13.6 10.9 3.7 51 4.6 WSW 7 17 4 9 - - 0.0
29/01:00pm 13.6 10.7 4.5 54 4.3 WSW 9 17 5 9 - - 0.0
29/12:30pm 13.1 10.2 4.8 57 3.9 WSW 9 17 5 9 - - 0.0
29/12:00pm 12.8 10.0 5.0 59 3.7 W 9 22 5 12 - - 0.0
29/11:30am 12.2 9.2 3.9 57 3.8 WSW 9 19 5 10 - - 0.0
29/11:00am 12.1 9.7 5.3 63 3.2 W 7 20 4 11 - - 0.0
29/10:30am 11.6 8.9 5.7 67 2.8 W 9 19 5 10 - - 0.0
29/10:00am 10.6 7.9 5.4 70 2.4 W 9 13 5 7 - - 0.0
29/09:30am 9.1 6.7 5.1 76 1.8 W 7 9 4 5 - - 0.0
29/09:00am 9.2 7.0 5.4 77 1.8 WSW 6 13 3 7 - - 0.2
29/08:30am 9.1 7.0 5.7 79 1.6 W 6 13 3 7 - - 0.2
29/08:00am 8.9 6.5 5.1 77 1.7 WSW 7 13 4 7 - - 0.2
29/07:30am 8.6 5.8 5.0 78 1.6 W 9 20 5 11 - - 0.2
29/07:00am 8.4 6.2 5.5 82 1.3 W 6 7 3 4 - - 0.2
29/06:30am 8.8 6.4 5.2 78 1.6 W 7 13 4 7 - - 0.2
29/06:00am 8.7 6.0 5.6 81 1.4 WSW 9 19 5 10 - - 0.2
29/05:30am 8.9 6.3 6.2 83 1.3 WSW 9 20 5 11 - - 0.0
29/05:00am 9.1 6.5 6.2 82 1.4 WSW 9 22 5 12 - - 0.0
29/04:30am 9.0 6.9 6.8 86 1.0 WSW 7 13 4 7 - - 0.0
29/04:00am 9.3 7.0 7.4 88 0.9 WSW 9 20 5 11 - - 0.0
29/03:30am 9.5 7.7 7.8 89 0.8 W 7 15 4 8 - - 0.0
29/03:00am 9.6 7.5 8.2 91 0.7 W 9 19 5 10 - - 0.0
29/02:30am 10.2 8.3 9.1 93 0.6 WSW 9 19 5 10 - - 0.0
29/02:00am 10.9 9.5 9.5 91 0.7 W 7 13 4 7 - - 0.0
29/01:30am 11.1 9.9 9.7 91 0.7 WSW 6 11 3 6 - - 0.0
29/01:00am 11.4 9.9 9.3 87 1.1 WSW 7 17 4 9 - - 0.0
29/12:30am 13.4 10.4 7.8 69 2.8 WNW 13 28 7 15 - - 0.0
29/12:00am 13.8 10.1 7.8 67 3.0 NW 17 24 9 13 - - 0.0
 
Date/Time
EST
Temp
°C
App
Temp
°C
Dew
Point
Rel
Hum
%
Delta-T
°C
Wind Press
QNH
hPa
Press
MSL
hPa
Rain
since 9 am
mm
Dir
 
Spd
km/h
Gust
km/h
Spd
kts
Gust
kts
28/11:30pm 14.6 10.9 8.1 65 3.3 NW 17 26 9 14 - - 0.0
28/11:00pm 14.3 10.2 8.0 66 3.2 NW 19 28 10 15 - - 0.0
28/10:30pm 14.1 11.2 8.1 67 3.0 NW 13 20 7 11 - - 0.0
28/10:00pm 14.4 11.2 8.4 67 3.1 NW 15 24 8 13 - - 0.0
28/09:30pm 14.4 10.7 8.1 66 3.2 NW 17 28 9 15 - - 0.0
28/09:00pm 14.4 10.7 8.1 66 3.2 NW 17 32 9 17 - - 0.0
28/08:30pm 14.6 10.9 8.1 65 3.3 NW 17 28 9 15 - - 0.0
28/08:00pm 14.6 10.6 8.1 65 3.3 NW 19 39 10 21 - - 0.0
28/07:30pm 14.9 10.9 8.2 64 3.4 NW 19 33 10 18 - - 0.0
28/07:00pm 15.0 11.7 8.0 63 3.6 NW 15 30 8 16 - - 0.0
28/06:30pm 15.0 12.1 8.0 63 3.6 NW 13 20 7 11 - - 0.0
28/06:00pm 15.3 11.9 7.8 61 3.8 NW 15 28 8 15 - - 0.0
28/05:30pm 15.5 11.8 7.8 60 3.9 NW 17 30 9 16 - - 0.0
28/05:00pm 15.3 12.4 8.1 62 3.7 NW 13 22 7 12 - - 0.0
28/04:30pm 15.5 12.6 8.3 62 3.7 NNW 13 20 7 11 - - 0.0
28/04:00pm 15.8 12.5 8.1 60 4.0 NNW 15 26 8 14 - - 0.0
28/03:30pm 17.1 13.9 8.5 57 4.5 NNW 15 24 8 13 - - 0.0
28/03:00pm 16.7 13.0 8.1 57 4.4 NNW 17 30 9 16 - - 0.0
28/02:30pm 16.3 12.6 7.8 57 4.4 NNW 17 32 9 17 - - 0.0
28/02:00pm 16.6 13.8 8.6 59 4.2 NNW 13 24 7 13 - - 0.0
28/01:30pm 17.2 14.5 9.1 59 4.3 NNW 13 20 7 11 - - 0.0
28/01:00pm 16.6 13.6 9.1 61 3.9 NNW 15 30 8 16 - - 0.0
28/12:30pm 15.6 12.6 9.1 65 3.4 NNW 15 30 8 16 - - 0.0
28/12:00pm 15.2 12.7 9.8 70 2.9 NNW 13 24 7 13 - - 0.0
28/11:30am 14.6 11.3 9.4 71 2.7 NNW 17 30 9 16 - - 0.0
28/11:00am 14.1 10.6 8.9 71 2.7 NNW 17 28 9 15 - - 0.0
28/10:30am 13.6 9.5 8.7 72 2.5 NNW 20 32 11 17 - - 0.0
28/10:00am 13.7 9.8 8.5 71 2.7 NNW 19 33 10 18 - - 0.0
28/09:30am 13.1 8.6 8.4 73 2.4 NW 22 43 12 23 - - 0.0
28/09:00am 12.5 8.4 8.0 74 2.3 NW 19 32 10 17 - - 0.0
28/08:30am 12.7 7.3 7.8 72 2.4 NNW 26 43 14 23 - - 0.0
28/08:00am 12.2 6.7 7.5 73 2.3 NNW 26 43 14 23 - - 0.0
28/07:30am 11.4 7.1 7.7 78 1.8 NNW 20 37 11 20 - - 0.0
28/07:00am 10.9 7.1 7.4 79 1.7 NW 17 28 9 15 - - 0.0
28/06:30am 11.9 7.2 7.6 75 2.1 NNW 22 35 12 19 - - 0.0
28/06:00am 11.6 6.6 7.9 78 1.8 NNW 24 37 13 20 - - 0.0
28/05:30am 11.4 6.3 7.7 78 1.8 NNW 24 33 13 18 - - 0.0
28/05:00am 11.4 6.7 7.7 78 1.8 NNW 22 37 12 20 - - 0.0
28/04:30am 12.1 7.8 7.8 75 2.1 NNW 20 32 11 17 - - 0.0
28/04:00am 11.8 7.4 7.5 75 2.1 NNW 20 32 11 17 - - 0.0
28/03:30am 11.7 7.3 7.4 75 2.1 NNW 20 32 11 17 - - 0.0
28/03:00am 11.7 6.9 7.4 75 2.1 NNW 22 33 12 18 - - 0.0
28/02:30am 11.8 7.0 7.5 75 2.1 NNW 22 33 12 18 - - 0.0
28/02:00am 12.1 7.7 7.6 74 2.2 NNW 20 30 11 16 - - 0.0
28/01:30am 11.8 7.6 7.5 75 2.1 NNW 19 32 10 17 - - 0.0
28/01:00am 11.8 7.9 7.3 74 2.2 NNW 17 26 9 14 - - 0.0
28/12:30am 11.9 8.4 7.4 74 2.2 NNW 15 24 8 13 - - 0.0
28/12:00am 11.6 8.1 7.3 75 2.1 NNW 15 22 8 12 - - 0.0
 
Date/Time
EST
Temp
°C
App
Temp
°C
Dew
Point
Rel
Hum
%
Delta-T
°C
Wind Press
QNH
hPa
Press
MSL
hPa
Rain
since 9 am
mm
Dir
 
Spd
km/h
Gust
km/h
Spd
kts
Gust
kts
27/11:30pm 11.5 8.0 7.2 75 2.1 NNW 15 22 8 12 - - 0.0
27/11:00pm 11.9 8.4 7.2 73 2.3 NNW 15 22 8 12 - - 0.0
27/10:30pm 12.2 8.7 7.1 71 2.5 NW 15 24 8 13 - - 0.0
27/10:00pm 12.1 8.2 7.2 72 2.4 NNW 17 26 9 14 - - 0.0
27/09:30pm 12.2 8.0 7.3 72 2.4 NNW 19 30 10 16 - - 0.0
27/09:00pm 12.1 8.2 7.2 72 2.4 NNW 17 24 9 13 - - 0.0
27/08:30pm 12.2 8.3 7.1 71 2.5 NNW 17 26 9 14 - - 0.0
27/08:00pm 12.7 8.8 7.2 69 2.7 NNW 17 24 9 13 - - 0.0
27/07:30pm 13.1 9.2 7.3 68 2.9 NNW 17 24 9 13 - - 0.0
27/07:00pm 13.1 9.3 7.5 69 2.8 NNW 17 28 9 15 - - 0.0
27/06:30pm 13.6 9.8 7.6 67 3.0 NNW 17 24 9 13 - - 0.0
27/06:00pm 13.8 11.2 7.8 67 3.0 NNW 11 20 6 11 - - 0.0
27/05:30pm 14.0 11.5 8.2 68 2.9 NNW 11 15 6 8 - - 0.0
27/05:00pm 14.4 11.9 8.4 67 3.1 NNW 11 19 6 10 - - 0.0
27/04:30pm 14.9 13.3 8.6 66 3.2 NNW 7 13 4 7 - - 0.0
27/04:00pm 14.9 12.4 8.4 65 3.3 NNW 11 19 6 10 - - 0.0
27/03:30pm 14.4 11.5 8.1 66 3.2 NNW 13 20 7 11 - - 0.0
27/03:00pm 15.3 13.3 8.5 64 3.5 NNW 9 17 5 9 - - 0.0
27/02:30pm 14.7 12.2 8.4 66 3.2 NNW 11 19 6 10 - - 0.0
27/02:00pm 14.8 13.0 8.1 64 3.4 NNW 7 13 4 7 - - 0.0
27/01:30pm 15.1 13.0 8.3 64 3.5 NNW 9 15 5 8 - - 0.0
27/01:00pm 15.2 13.3 7.7 61 3.8 NNW 7 11 4 6 - - 0.0
27/12:30pm 16.2 13.9 7.4 56 4.5 NW 9 17 5 9 - - 0.0
27/12:00pm 15.8 13.1 7.3 57 4.3 NW 11 17 6 9 - - 0.0
27/11:30am 15.2 12.3 6.7 57 4.2 NNW 11 19 6 10 - - 0.0
27/11:00am 14.5 12.1 7.1 61 3.7 NNW 9 15 5 8 - - 0.0
27/10:30am 13.3 9.9 5.9 61 3.6 NNW 13 22 7 12 - - 0.0
27/10:00am 12.7 9.2 5.6 62 3.4 NNW 13 20 7 11 - - 0.0
27/09:30am 11.4 7.4 4.8 64 3.1 NNW 15 22 8 12 - - 0.0
27/09:00am 10.7 6.6 4.2 64 3.0 NNW 15 24 8 13 - - 0.0
27/08:30am 10.2 6.0 3.9 65 2.8 NNW 15 24 8 13 - - 0.0
27/08:00am 10.3 6.1 3.8 64 2.9 NNW 15 22 8 12 - - 0.0
27/07:30am 10.1 5.9 3.8 65 2.8 NNW 15 22 8 12 - - 0.0
27/07:00am 9.8 6.0 3.8 66 2.7 NNW 13 19 7 10 - - 0.0
27/06:30am 9.6 5.7 3.4 65 2.7 NNW 13 19 7 10 - - 0.0
27/06:00am 9.3 5.5 3.7 68 2.5 NNW 13 20 7 11 - - 0.0
27/05:30am 9.5 5.6 3.5 66 2.7 NNW 13 22 7 12 - - 0.0
27/05:00am 9.6 6.1 3.4 65 2.7 NNW 11 19 6 10 - - 0.0
27/04:30am 9.5 5.7 3.7 67 2.6 NNW 13 22 7 12 - - 0.0
27/04:00am 9.8 6.3 3.5 65 2.8 NNW 11 17 6 9 - - 0.0
27/03:30am 9.8 6.0 3.8 66 2.7 NNW 13 19 7 10 - - 0.0
27/03:00am 9.9 6.8 3.6 65 2.8 NNW 9 15 5 8 - - 0.0
27/02:30am 10.0 6.9 3.7 65 2.8 NNW 9 15 5 8 - - 0.0
27/02:00am 8.7 6.2 4.5 75 1.9 NW 7 13 4 7 - - 0.0
27/01:30am 9.0 6.1 4.4 73 2.1 NNW 9 17 5 9 - - 0.0
27/01:00am 9.9 7.4 4.5 69 2.5 N 7 9 4 5 - - 0.0
27/12:30am 10.2 7.9 4.6 68 2.6 N 6 9 3 5 - - 0.0
27/12:00am 9.8 6.9 4.6 70 2.4 NNW 9 15 5 8 - - 0.0
 
Date/Time
EST
Temp
°C
App
Temp
°C
Dew
Point
Rel
Hum
%
Delta-T
°C
Wind Press
QNH
hPa
Press
MSL
hPa
Rain
since 9 am
mm
Dir
 
Spd
km/h
Gust
km/h
Spd
kts
Gust
kts
26/11:30pm 9.2 6.7 4.6 73 2.1 N 7 15 4 8 - - 0.0
26/11:00pm 9.6 7.3 5.0 73 2.1 ENE 6 9 3 5 - - 0.0
26/10:30pm 9.8 7.6 5.4 74 2.0 ENE 6 9 3 5 - - 0.0
26/10:00pm 8.5 6.1 5.1 79 1.5 NNE 7 17 4 9 - - 0.0
26/09:30pm 9.4 7.1 5.9 79 1.6 ENE 7 11 4 6 - - 0.0
26/09:00pm 9.4 7.1 5.6 77 1.8 ENE 7 9 4 5 - - 0.0
26/08:30pm 9.5 7.4 5.7 77 1.8 ENE 6 9 3 5 - - 0.0

Other Formats:

Comma delimited format used in spreadsheet applications
http://www.bom.gov.au/fwo/IDV60801/IDV60801.94930.axf

JavaScript Object Notation format (JSON) in row-major order
http://www.bom.gov.au/fwo/IDV60801/IDV60801.94930.json